Weather reports worldwide

Advertisment
Monte Terminillo, Italy (16219): temperature & dewpoint: 05.12.2019 09:00:00 - 11.12.2019 09:00:00 (CET)Monte Terminillo, Italy (16219): wind speed & gusts: 05.12.2019 09:00:00 - 11.12.2019 09:00:00 (CET)Monte Terminillo, Italy (16219): wind direction: 05.12.2019 09:00:00 - 11.12.2019 09:00:00 (CET)Monte Terminillo, Italy (16219): sunshine duration: 05.12.2019 09:00:00 - 11.12.2019 09:00:00 (CET)
Date & Time tt [°C] td [°C] ff [km/h] ff [kn] fx [km/h] fx [kn] dd sd [min]
11.12.2019 09:00:00 -2,5 -10,0 29 16 54 29 E 37
11.12.2019 08:00:00 -2,1 -10,1 28 15 - - E 0
11.12.2019 07:00:00 -3,7 -10,2 31 17 - - E 0
11.12.2019 06:00:00 - - - - - - - -
11.12.2019 05:00:00 -4,3 -8,5 41 22 - - E 0
11.12.2019 04:00:00 -5,2 -6,5 39 21 - - E 0
11.12.2019 03:00:00 -4,7 -5,2 42 23 62 33 E 0
11.12.2019 02:00:00 -4,6 -5,0 4 2 66 36 N 0
11.12.2019 01:00:00 -4,5 -4,9 54 29 - - E 0
11.12.2019 00:00:00 -4,4 -4,8 68 37 89 48 E 0
10.12.2019 23:00:00 -4,6 -5,4 65 35 83 45 E 0
10.12.2019 22:00:00 -4,3 -4,8 67 36 - - E 0
10.12.2019 21:00:00 - - - - - - - -
10.12.2019 20:00:00 -3,5 -3,7 76 41 - - E 0
10.12.2019 19:00:00 -3,2 -3,4 85 46 - - E 0
10.12.2019 18:00:00 -2,8 -2,9 67 36 99 54 E 0
10.12.2019 17:00:00 -2,7 -3,7 59 32 86 47 E 0
10.12.2019 16:00:00 -2,6 -2,8 63 34 - - E 27
10.12.2019 15:00:00 -2,4 -2,8 70 38 94 51 E 0
10.12.2019 14:00:00 - - - - - - - -
10.12.2019 13:00:00 -2,2 -3,3 76 41 - - E 40
10.12.2019 12:00:00 -2,3 -3,1 72 39 94 51 E 34
10.12.2019 11:00:00 -2,4 -2,7 78 42 98 53 E 42
10.12.2019 10:00:00 -2,6 -2,9 80 43 - - E 12
10.12.2019 09:00:00 - - - - - - - -
10.12.2019 08:00:00 -1,6 -6,7 74 40 98 53 E 0
10.12.2019 07:00:00 -1,5 -8,1 61 33 - - E 0
10.12.2019 06:00:00 -1,7 -6,3 37 20 - - E 0
10.12.2019 05:00:00 -1,7 -4,7 46 25 - - E 0
10.12.2019 04:00:00 -1,6 -4,5 41 22 - - ENE 0
10.12.2019 03:00:00 -2,2 -4,5 42 23 - - E 0
10.12.2019 02:00:00 - - - - - - - -
10.12.2019 01:00:00 -1,6 -3,3 24 13 - - NNW 0
10.12.2019 00:00:00 -1,0 -1,9 24 13 - - NNW 0
09.12.2019 23:00:00 -0,8 -1,2 16 9 - - N 0
09.12.2019 22:00:00 -0,5 -0,9 18 10 - - N 0
09.12.2019 21:00:00 -0,3 -0,6 26 14 - - NNW 0
09.12.2019 20:00:00 -0,4 -0,9 21 11 - - NW 0
09.12.2019 19:00:00 - - - - - - - -
09.12.2019 18:00:00 0,9 0,8 37 20 - - NW 0
09.12.2019 17:00:00 0,9 0,9 4 2 - - N 1
09.12.2019 16:00:00 1,1 1,1 16 9 - - - 18
09.12.2019 15:00:00 1,2 1,2 4 2 32 17 N 0
09.12.2019 14:00:00 1,1 1,1 4 2 - - N 0
09.12.2019 13:00:00 0,8 0,8 4 2 - - N 0
09.12.2019 12:00:00 0,5 0,4 4 2 29 16 N 0
09.12.2019 11:00:00 0,3 0,2 4 2 - - N 0
09.12.2019 10:00:00 1,1 1,0 4 2 - - N 0
09.12.2019 09:00:00 1,2 1,1 4 2 - - N 0
09.12.2019 08:00:00 1,1 1,0 4 2 - - N 0
09.12.2019 07:00:00 1,1 1,1 15 8 - - - 0
09.12.2019 06:00:00 1,0 1,0 4 2 - - N 0
09.12.2019 05:00:00 0,7 0,7 4 2 39 21 N 0
09.12.2019 04:00:00 0,5 0,4 22 12 - - W 0
09.12.2019 03:00:00 - - - - - - - -
09.12.2019 02:00:00 0,3 0,1 4 2 - - N 0
09.12.2019 01:00:00 0,6 0,4 16 9 - - W 0
09.12.2019 00:00:00 1,0 0,8 4 2 - - N 0
08.12.2019 23:00:00 1,3 1,1 22 12 42 23 W 0
08.12.2019 22:00:00 1,4 1,2 4 2 - - N 0
08.12.2019 21:00:00 - - - - - - - -
08.12.2019 20:00:00 1,7 1,5 4 2 - - N 0
08.12.2019 19:00:00 1,9 1,4 4 2 - - N 0
08.12.2019 18:00:00 2,0 1,3 4 2 - - N 0
08.12.2019 17:00:00 2,3 1,5 4 2 - - N 0
08.12.2019 16:00:00 2,5 1,6 4 2 - - N 0
08.12.2019 15:00:00 3,2 1,9 15 8 - - W 3
08.12.2019 14:00:00 2,9 1,6 4 2 - - N 20
08.12.2019 13:00:00 2,5 1,1 11 6 - - W 47
08.12.2019 12:00:00 1,8 0,1 13 7 - - W 59
08.12.2019 11:00:00 1,0 -0,8 4 2 - - N 60
08.12.2019 10:00:00 0,5 -1,2 4 2 - - - 60
08.12.2019 09:00:00 0,4 -1,2 4 2 - - N 42
08.12.2019 08:00:00 0,5 -0,9 9 5 - - WNW 0
08.12.2019 07:00:00 1,1 0,2 15 8 - - WNW 0
08.12.2019 06:00:00 1,4 0,9 13 7 - - WNW 0
08.12.2019 05:00:00 1,4 1,0 4 2 - - N 0
08.12.2019 04:00:00 1,3 0,8 4 2 - - N 0
08.12.2019 03:00:00 1,2 0,8 4 2 - - N 0
08.12.2019 02:00:00 1,2 0,9 4 2 - - N 0
08.12.2019 01:00:00 1,1 0,5 18 10 - - WNW 0
08.12.2019 00:00:00 1,2 0,5 4 2 38 21 N 0
07.12.2019 23:00:00 1,1 0,7 16 9 - - NW 0
07.12.2019 22:00:00 1,2 0,3 24 13 - - NW 0
07.12.2019 21:00:00 1,6 1,2 18 10 - - NW 0
07.12.2019 20:00:00 1,5 1,1 16 9 - - NW 0
07.12.2019 19:00:00 1,6 0,8 16 9 - - W 0
07.12.2019 18:00:00 1,7 1,1 21 11 - - NW 0
07.12.2019 17:00:00 2,0 1,5 18 10 - - WNW 7
07.12.2019 16:00:00 2,1 1,8 22 12 - - NW 4
07.12.2019 15:00:00 2,3 2,0 28 15 - - WNW 1
07.12.2019 14:00:00 2,1 1,8 24 13 43 23 WNW 1
07.12.2019 13:00:00 2,1 2,0 24 13 - - WNW 11
07.12.2019 12:00:00 1,9 1,7 21 11 - - WNW 0
07.12.2019 11:00:00 1,5 1,2 18 10 - - W 0
07.12.2019 10:00:00 1,4 1,1 15 8 - - - 0
07.12.2019 09:00:00 1,4 1,1 22 12 - - WNW 0
07.12.2019 08:00:00 1,4 1,2 22 12 - - NW 0
07.12.2019 07:00:00 1,4 1,1 22 12 - - WNW 0
07.12.2019 06:00:00 1,4 1,1 31 17 - - WNW 0
07.12.2019 05:00:00 1,6 1,4 24 13 - - W 0
07.12.2019 04:00:00 - - - - - - - -
07.12.2019 03:00:00 1,4 1,1 4 2 - - N 0
07.12.2019 02:00:00 1,1 0,7 26 14 - - WNW 0
07.12.2019 01:00:00 1,5 1,2 22 12 - - W 0
07.12.2019 00:00:00 1,6 1,2 4 2 - - N 0
06.12.2019 23:00:00 1,7 1,1 4 2 37 20 N 0
06.12.2019 22:00:00 2,0 1,2 4 2 - - N 0
06.12.2019 21:00:00 2,1 1,4 4 2 - - N 0
06.12.2019 20:00:00 2,3 1,4 4 2 - - N 0
06.12.2019 19:00:00 2,6 1,8 4 2 - - N 0
06.12.2019 18:00:00 2,8 1,8 4 2 - - N 0
06.12.2019 17:00:00 3,1 1,9 4 2 - - N 0
06.12.2019 16:00:00 3,2 1,8 4 2 - - N 10
06.12.2019 15:00:00 3,5 2,2 4 2 - - N 0
06.12.2019 14:00:00 3,4 2,4 4 2 - - N 0
06.12.2019 13:00:00 3,4 2,5 4 2 - - N 0
06.12.2019 12:00:00 3,2 2,0 4 2 - - N 2
06.12.2019 11:00:00 3,2 2,0 4 2 - - N 2
06.12.2019 10:00:00 3,2 2,0 4 2 - - N 0
06.12.2019 09:00:00 3,2 1,7 4 2 - - N 22
06.12.2019 08:00:00 3,4 1,8 4 2 - - N 0
06.12.2019 07:00:00 3,3 1,5 4 2 - - - 0
06.12.2019 06:00:00 3,5 1,7 4 2 - - N 0
06.12.2019 05:00:00 3,6 2,0 4 2 - - N 0
06.12.2019 04:00:00 3,7 1,8 4 2 - - N 0
06.12.2019 03:00:00 3,7 1,8 4 2 - - N 0
06.12.2019 02:00:00 3,7 1,3 4 2 - - N 0
06.12.2019 01:00:00 4,0 1,1 4 2 - - N 0
06.12.2019 00:00:00 4,1 0,1 4 2 - - N 0
05.12.2019 23:00:00 4,7 1,2 4 2 - - N 0
05.12.2019 22:00:00 4,9 1,5 4 2 - - N 0
05.12.2019 21:00:00 4,9 1,1 4 2 - - N 0
05.12.2019 20:00:00 5,4 1,8 4 2 - - N 0
05.12.2019 19:00:00 5,6 1,2 8 4 - - SSW 0
05.12.2019 18:00:00 5,8 1,1 4 2 - - N 0
05.12.2019 17:00:00 6,1 0,1 5 3 - - SSW 26
05.12.2019 16:00:00 6,0 0,3 8 4 - - SE 60
05.12.2019 15:00:00 5,9 -2,5 4 2 - - N 10
05.12.2019 14:00:00 5,0 -1,1 5 3 - - WNW 25
05.12.2019 13:00:00 4,2 -4,9 4 2 - - - 24
05.12.2019 12:00:00 4,2 -3,4 4 2 - - N 0
05.12.2019 11:00:00 3,8 -7,9 5 3 - - S 0
05.12.2019 10:00:00 3,4 -13,0 5 3 - - SSW 9
05.12.2019 09:00:00 3,7 -13,5 5 3 - - SSE 7

tt = temperature
td = dewpoint
ff = wind speed
fx = gusts
dd = wind direction
sd = sunshine duration

Next stations